createdAt,value
2018-08-30T00:00:51.457Z,8.87
2018-08-30T00:03:18.664Z,5.77
2018-08-30T00:05:45.836Z,9.43
2018-08-30T00:08:13.219Z,11.80
2018-08-30T00:10:40.446Z,14.37
2018-08-30T00:13:07.904Z,18.30
2018-08-30T00:15:35.105Z,16.40
2018-08-30T00:18:02.329Z,14.83
2018-08-30T00:20:29.501Z,16.20
2018-08-30T00:22:56.708Z,17.73
2018-08-30T00:25:23.936Z,19.50
2018-08-30T00:27:51.241Z,20.73
2018-08-30T00:30:18.456Z,27.30
2018-08-30T00:32:45.775Z,25.57
2018-08-30T00:35:13.588Z,32.13
2018-08-30T00:37:40.803Z,23.90
2018-08-30T00:40:07.985Z,25.27
2018-08-30T00:42:35.172Z,26.57
2018-08-30T00:45:02.380Z,19.30
2018-08-30T00:47:29.738Z,23.90
2018-08-30T00:49:56.948Z,17.40
2018-08-30T00:52:24.096Z,20.83
2018-08-30T00:54:51.296Z,21.57
2018-08-30T00:57:18.668Z,17.67
2018-08-30T00:59:46.201Z,14.27
2018-08-30T01:02:13.436Z,14.50
2018-08-30T01:04:40.677Z,17.07
2018-08-30T01:07:07.947Z,11.43
2018-08-30T01:09:35.148Z,12.13
2018-08-30T01:12:02.393Z,10.23
2018-08-30T01:14:29.616Z,9.40
2018-08-30T01:16:56.811Z,11.27
2018-08-30T01:19:24.017Z,9.87
2018-08-30T01:21:51.217Z,10.60
2018-08-30T01:24:18.449Z,9.03
2018-08-30T01:26:45.648Z,8.13
2018-08-30T01:29:12.866Z,8.10
2018-08-30T01:31:40.108Z,7.37
2018-08-30T01:34:10.304Z,5.30
2018-08-30T01:36:37.532Z,6.50
2018-08-30T01:39:05.521Z,7.60
2018-08-30T01:41:32.852Z,6.73
2018-08-30T01:44:00.091Z,8.73
2018-08-30T01:46:27.344Z,6.33
2018-08-30T01:48:54.531Z,8.47
2018-08-30T01:51:21.713Z,6.07
2018-08-30T01:53:48.901Z,7.03
2018-08-30T01:56:16.088Z,6.70
2018-08-30T01:58:43.300Z,7.33
2018-08-30T02:01:10.518Z,6.93
2018-08-30T02:03:37.744Z,8.17
2018-08-30T02:06:05.054Z,11.17
2018-08-30T02:08:32.328Z,8.10
2018-08-30T02:10:59.598Z,7.70
2018-08-30T02:13:26.811Z,7.50
2018-08-30T02:15:53.949Z,11.00
2018-08-30T02:18:21.173Z,6.80
2018-08-30T02:20:48.448Z,6.63
2018-08-30T02:23:15.708Z,4.67
2018-08-30T02:25:42.988Z,6.93
2018-08-30T02:28:10.200Z,5.40
2018-08-30T02:30:37.450Z,7.17
2018-08-30T02:33:04.695Z,6.10
2018-08-30T02:35:31.840Z,5.60
2018-08-30T02:37:59.074Z,4.70
2018-08-30T02:40:26.324Z,4.47
2018-08-30T02:42:53.532Z,6.20
2018-08-30T02:45:20.808Z,3.73
2018-08-30T02:47:48.073Z,4.70
2018-08-30T02:50:15.265Z,2.33
2018-08-30T02:52:42.478Z,2.20
2018-08-30T02:55:09.696Z,4.37
2018-08-30T02:57:36.868Z,3.17
2018-08-30T03:00:04.285Z,2.20
2018-08-30T03:02:31.545Z,2.40
2018-08-30T03:04:58.748Z,1.50
2018-08-30T03:07:25.948Z,1.83
2018-08-30T03:09:53.089Z,2.70
2018-08-30T03:12:20.349Z,1.93
2018-08-30T03:15:10.920Z,1.97
2018-08-30T03:17:38.165Z,1.07
2018-08-30T03:20:07.828Z,1.10
2018-08-30T03:22:35.836Z,1.37
2018-08-30T03:25:03.377Z,1.10
2018-08-30T03:27:30.658Z,1.03
2018-08-30T03:29:57.868Z,1.40
2018-08-30T03:32:25.317Z,2.30
2018-08-30T03:34:52.511Z,1.33
2018-08-30T03:37:19.751Z,1.20
2018-08-30T03:39:47.295Z,1.70
2018-08-30T03:42:14.543Z,1.20
2018-08-30T03:44:41.773Z,1.30
2018-08-30T03:47:09.050Z,1.60
2018-08-30T03:49:36.321Z,1.80
2018-08-30T03:52:03.530Z,2.87
2018-08-30T03:54:30.736Z,1.60
2018-08-30T03:56:57.990Z,1.60
2018-08-30T03:59:25.273Z,1.50
2018-08-30T04:01:52.533Z,1.30
2018-08-30T04:04:19.857Z,1.87
2018-08-30T04:06:47.219Z,2.30
2018-08-30T04:09:14.388Z,2.07
2018-08-30T04:11:41.788Z,2.63
2018-08-30T04:14:09.068Z,2.60
2018-08-30T04:16:36.264Z,3.20
2018-08-30T04:19:05.991Z,1.57
2018-08-30T04:21:33.738Z,1.23
2018-08-30T04:24:01.457Z,1.60
2018-08-30T04:26:28.739Z,1.40
2018-08-30T04:28:55.991Z,1.10
2018-08-30T04:31:23.222Z,1.10
2018-08-30T04:33:50.765Z,1.37
2018-08-30T04:36:17.989Z,1.50
2018-08-30T04:38:45.347Z,1.33
2018-08-30T04:41:13.272Z,1.60
2018-08-30T04:43:40.440Z,1.43
2018-08-30T04:46:07.680Z,4.17
2018-08-30T04:48:35.089Z,2.00
2018-08-30T04:51:02.271Z,3.17
2018-08-30T04:53:29.484Z,3.57
2018-08-30T04:55:56.731Z,2.97
2018-08-30T04:58:23.928Z,3.90
2018-08-30T05:00:51.146Z,4.97
2018-08-30T05:03:18.380Z,6.50
2018-08-30T05:05:45.656Z,5.10
2018-08-30T05:08:12.897Z,3.53
2018-08-30T05:10:40.769Z,4.63
2018-08-30T05:13:08.096Z,6.07
2018-08-30T05:15:35.305Z,9.43
2018-08-30T05:18:02.513Z,8.93
2018-08-30T05:20:29.897Z,14.60
2018-08-30T05:23:01.621Z,11.37
2018-08-30T05:25:28.816Z,10.27
2018-08-30T05:28:00.461Z,13.63
2018-08-30T05:30:29.224Z,11.90
2018-08-30T05:32:56.956Z,11.33
2018-08-30T05:35:26.919Z,10.57
2018-08-30T05:37:54.183Z,12.60
2018-08-30T05:40:21.460Z,13.63
2018-08-30T05:42:48.889Z,11.80
2018-08-30T05:45:16.313Z,12.90
2018-08-30T05:47:43.576Z,16.83
2018-08-30T05:50:10.824Z,17.93
2018-08-30T05:52:38.069Z,16.67
2018-08-30T05:55:05.281Z,17.40
2018-08-30T05:57:32.575Z,17.13
2018-08-30T06:00:00.271Z,15.60
2018-08-30T06:02:28.560Z,15.40
2018-08-30T06:04:55.892Z,17.57
2018-08-30T06:07:23.248Z,22.70
2018-08-30T06:09:50.344Z,16.00
2018-08-30T06:12:17.520Z,18.67
2018-08-30T06:14:44.752Z,17.27
2018-08-30T06:17:11.992Z,14.43
2018-08-30T06:19:39.269Z,18.40
2018-08-30T06:22:06.465Z,18.00
2018-08-30T06:24:33.709Z,16.97
2018-08-30T06:27:01.598Z,16.70
2018-08-30T06:29:28.845Z,15.53
2018-08-30T06:31:56.227Z,17.17
2018-08-30T06:34:23.505Z,16.20
2018-08-30T06:36:50.660Z,19.77
2018-08-30T06:39:17.903Z,18.80
2018-08-30T06:41:45.120Z,15.73
2018-08-30T06:44:12.413Z,17.20
2018-08-30T06:46:39.665Z,16.60
2018-08-30T06:49:07.061Z,17.90
2018-08-30T06:51:34.264Z,15.50
2018-08-30T06:54:01.460Z,12.37
2018-08-30T06:56:29.043Z,22.80
2018-08-30T06:58:56.137Z,19.50
2018-08-30T07:01:23.340Z,16.90
2018-08-30T07:03:50.591Z,14.47
2018-08-30T07:06:17.828Z,19.97
2018-08-30T07:08:51.062Z,20.90
2018-08-30T07:11:19.454Z,16.73
2018-08-30T07:13:48.354Z,17.90
2018-08-30T07:16:15.644Z,16.50
2018-08-30T07:18:42.841Z,19.00
2018-08-30T07:21:10.124Z,19.30
2018-08-30T07:23:37.298Z,18.27
2018-08-30T07:26:04.509Z,18.00
2018-08-30T07:28:31.771Z,19.43
2018-08-30T07:30:58.938Z,18.53
2018-08-30T07:33:26.275Z,17.53
2018-08-30T07:35:53.448Z,16.50
2018-08-30T07:38:20.684Z,19.83
2018-08-30T07:40:48.516Z,14.47
2018-08-30T07:43:15.654Z,16.73
2018-08-30T07:45:43.205Z,19.20
2018-08-30T07:48:10.471Z,19.27
2018-08-30T07:50:37.625Z,19.73
2018-08-30T07:53:05.133Z,25.70
2018-08-30T07:55:32.358Z,18.03
2018-08-30T07:57:59.595Z,19.87
2018-08-30T08:00:26.772Z,17.33
2018-08-30T08:02:54.472Z,20.67
2018-08-30T08:05:21.753Z,16.80
2018-08-30T08:07:48.955Z,19.03
2018-08-30T08:10:16.204Z,19.97
2018-08-30T08:12:43.495Z,20.27
2018-08-30T08:15:10.752Z,17.13
2018-08-30T08:17:37.977Z,17.10
2018-08-30T08:20:05.236Z,19.00
2018-08-30T08:22:32.496Z,17.77
2018-08-30T08:24:59.757Z,18.30
2018-08-30T08:27:27.018Z,16.83
2018-08-30T08:29:54.220Z,19.63
2018-08-30T08:32:21.449Z,18.10
2018-08-30T08:34:49.468Z,17.13
2018-08-30T08:37:16.720Z,15.20
2018-08-30T08:39:43.990Z,19.30
2018-08-30T08:42:11.170Z,15.80
2018-08-30T08:44:38.400Z,16.27
2018-08-30T08:47:05.596Z,16.70
2018-08-30T08:49:32.800Z,17.07
2018-08-30T08:52:00.033Z,17.03
2018-08-30T08:54:27.234Z,18.73
2018-08-30T08:56:54.417Z,16.83
2018-08-30T08:59:21.746Z,17.07
2018-08-30T09:01:48.890Z,19.30
2018-08-30T09:04:16.037Z,17.30
2018-08-30T09:06:43.278Z,15.33
2018-08-30T09:09:11.484Z,16.17
2018-08-30T09:11:38.847Z,15.87
2018-08-30T09:14:06.116Z,21.70
2018-08-30T09:16:33.404Z,13.93
2018-08-30T09:19:00.748Z,14.27
2018-08-30T09:21:28.004Z,12.77
2018-08-30T09:23:55.255Z,19.83
2018-08-30T09:26:22.397Z,17.57
2018-08-30T09:28:49.704Z,15.90
2018-08-30T09:31:16.980Z,16.27
2018-08-30T09:33:44.272Z,16.67
2018-08-30T09:36:11.425Z,18.53
2018-08-30T09:38:38.672Z,15.77
2018-08-30T09:41:05.900Z,13.90
2018-08-30T09:43:33.165Z,17.63
2018-08-30T09:46:00.345Z,14.10
2018-08-30T09:48:27.528Z,23.32
2018-08-30T09:50:54.731Z,44.53
2018-08-30T09:53:22.035Z,23.80
2018-08-30T09:55:49.290Z,12.93
2018-08-30T09:58:16.533Z,18.50
2018-08-30T10:00:49.436Z,16.40
2018-08-30T10:03:16.621Z,15.07
2018-08-30T10:05:43.797Z,16.53
2018-08-30T10:08:11.060Z,21.07
2018-08-30T10:10:38.248Z,17.60
2018-08-30T10:13:05.647Z,19.87
2018-08-30T10:15:32.794Z,15.70
2018-08-30T10:18:00.012Z,17.83
2018-08-30T10:20:27.228Z,13.20
2018-08-30T10:22:54.421Z,14.67
2018-08-30T10:25:21.718Z,16.47
2018-08-30T10:27:48.958Z,17.23
2018-08-30T10:30:16.156Z,15.23
2018-08-30T10:32:43.381Z,12.10
2018-08-30T10:35:10.588Z,12.20
2018-08-30T10:37:37.865Z,18.33
2018-08-30T10:40:05.389Z,12.20
2018-08-30T10:42:32.541Z,16.07
2018-08-30T10:44:59.729Z,12.30
2018-08-30T10:47:27.008Z,16.27
2018-08-30T10:49:54.260Z,12.93
2018-08-30T10:52:21.477Z,14.33
2018-08-30T10:54:48.727Z,12.00
2018-08-30T10:57:15.952Z,18.30
2018-08-30T10:59:43.199Z,16.23
2018-08-30T11:02:10.464Z,10.20
2018-08-30T11:04:37.666Z,9.07
2018-08-30T11:07:04.945Z,11.47
2018-08-30T11:09:32.152Z,8.13
2018-08-30T11:11:59.404Z,9.27
2018-08-30T11:14:26.620Z,6.83
2018-08-30T11:16:53.834Z,9.37
2018-08-30T11:19:21.018Z,11.40
2018-08-30T11:21:48.270Z,8.07
2018-08-30T11:24:15.488Z,9.93
2018-08-30T11:26:42.736Z,7.83
2018-08-30T11:29:10.000Z,8.80
2018-08-30T11:31:37.254Z,8.77
2018-08-30T11:34:04.510Z,11.27
2018-08-30T11:36:31.748Z,8.60
2018-08-30T11:38:58.965Z,9.80
2018-08-30T11:41:26.215Z,12.73
2018-08-30T11:43:53.424Z,10.27
2018-08-30T11:46:20.630Z,9.93
2018-08-30T11:48:47.885Z,10.77
2018-08-30T11:51:15.566Z,8.70
2018-08-30T11:53:42.745Z,10.53
2018-08-30T11:56:10.008Z,8.60
2018-08-30T11:58:37.221Z,9.97
2018-08-30T12:01:04.462Z,8.07
2018-08-30T12:03:31.717Z,10.60
2018-08-30T12:06:00.307Z,13.17
2018-08-30T12:08:27.634Z,8.73
2018-08-30T12:10:54.905Z,8.00
2018-08-30T12:13:22.036Z,9.93
2018-08-30T12:15:49.244Z,10.77
2018-08-30T12:18:16.475Z,8.83
2018-08-30T12:20:43.750Z,12.30
2018-08-30T12:23:10.909Z,9.40
2018-08-30T12:25:38.136Z,10.20
2018-08-30T12:28:05.396Z,9.70
2018-08-30T12:30:32.660Z,9.67
2018-08-30T12:32:59.971Z,8.33
2018-08-30T12:35:27.287Z,10.73
2018-08-30T12:37:54.480Z,10.20
2018-08-30T12:40:21.795Z,8.70
2018-08-30T12:42:49.266Z,11.63
2018-08-30T12:45:16.429Z,12.50
2018-08-30T12:47:44.480Z,7.60
2018-08-30T12:50:11.806Z,7.50
2018-08-30T12:52:39.016Z,6.67
2018-08-30T12:55:06.330Z,9.07
2018-08-30T12:57:33.615Z,6.30
2018-08-30T13:00:00.884Z,10.57
2018-08-30T13:02:28.756Z,8.00
2018-08-30T13:04:56.052Z,7.20
2018-08-30T13:07:24.172Z,6.90
2018-08-30T13:09:51.531Z,7.43
2018-08-30T13:12:18.875Z,6.20
2018-08-30T13:14:46.304Z,6.33
2018-08-30T13:17:13.659Z,9.70
2018-08-30T13:19:41.256Z,9.67
2018-08-30T13:22:08.639Z,9.27
2018-08-30T13:24:36.700Z,6.00
2018-08-30T13:27:04.063Z,7.40
2018-08-30T13:29:32.040Z,10.50
2018-08-30T13:32:00.334Z,7.43
2018-08-30T13:34:28.241Z,12.70
2018-08-30T13:36:56.185Z,6.30
2018-08-30T13:39:24.238Z,7.47
2018-08-30T13:41:51.711Z,10.50
2018-08-30T13:44:19.293Z,8.43
2018-08-30T13:46:47.583Z,9.67
2018-08-30T13:49:15.693Z,9.20
2018-08-30T13:51:43.329Z,6.43
2018-08-30T13:54:10.304Z,7.80
2018-08-30T13:56:37.750Z,10.07
2018-08-30T13:59:05.088Z,5.63
2018-08-30T14:01:32.338Z,6.97
2018-08-30T14:03:59.344Z,9.93
2018-08-30T14:06:26.633Z,7.10
2018-08-30T14:08:53.795Z,10.37
2018-08-30T14:11:21.101Z,7.93
2018-08-30T14:13:48.447Z,5.23
2018-08-30T14:16:15.368Z,6.40
2018-08-30T14:18:42.676Z,5.20
2018-08-30T14:21:09.829Z,6.93
2018-08-30T14:23:37.071Z,5.90
2018-08-30T14:26:04.293Z,6.30
2018-08-30T14:28:31.461Z,12.40
2018-08-30T14:30:58.776Z,7.83
2018-08-30T14:33:25.887Z,6.87
2018-08-30T14:35:53.245Z,5.70
2018-08-30T14:38:20.432Z,9.83
2018-08-30T14:40:47.754Z,4.97
2018-08-30T14:43:14.920Z,5.77
2018-08-30T14:45:42.169Z,7.03
2018-08-30T14:48:09.444Z,7.40
2018-08-30T14:50:36.572Z,6.67
2018-08-30T14:53:03.862Z,6.17
2018-08-30T14:55:31.041Z,6.20
2018-08-30T14:57:58.308Z,5.80
2018-08-30T15:00:25.510Z,6.10
2018-08-30T15:02:52.577Z,5.67
2018-08-30T15:05:19.855Z,5.10
2018-08-30T15:07:47.045Z,5.00
2018-08-30T15:10:14.733Z,5.03
2018-08-30T15:12:42.083Z,7.90
2018-08-30T15:15:09.120Z,6.37
2018-08-30T15:17:36.336Z,6.33
2018-08-30T15:20:03.636Z,9.77
2018-08-30T15:22:30.836Z,4.90
2018-08-30T15:24:58.042Z,5.60
2018-08-30T15:27:25.319Z,4.23
2018-08-30T15:29:52.441Z,4.57
2018-08-30T15:32:19.618Z,8.53
2018-08-30T15:34:46.840Z,3.87
2018-08-30T15:37:14.031Z,4.27
2018-08-30T15:39:41.253Z,3.63
2018-08-30T15:42:08.491Z,5.50
2018-08-30T15:44:35.660Z,4.33
2018-08-30T15:47:03.095Z,5.13
2018-08-30T15:49:30.488Z,7.10
2018-08-30T15:51:57.683Z,5.07
2018-08-30T15:54:24.993Z,5.73
2018-08-30T15:56:52.125Z,7.33
2018-08-30T15:59:19.482Z,3.07
2018-08-30T16:01:46.604Z,5.00
2018-08-30T16:04:13.892Z,4.60
2018-08-30T16:06:41.349Z,4.37
2018-08-30T16:09:10.025Z,5.70
2018-08-30T16:11:37.240Z,7.37
2018-08-30T16:14:04.453Z,2.87
2018-08-30T16:16:31.625Z,5.73
2018-08-30T16:18:58.881Z,4.57
2018-08-30T16:21:26.068Z,5.40
2018-08-30T16:23:53.337Z,3.67
2018-08-30T16:26:20.524Z,5.43
2018-08-30T16:28:47.758Z,4.90
2018-08-30T16:31:15.017Z,4.47
2018-08-30T16:33:42.124Z,2.30
2018-08-30T16:36:10.048Z,5.13
2018-08-30T16:38:37.319Z,4.53
2018-08-30T16:41:04.649Z,4.73
2018-08-30T16:43:31.828Z,11.63
2018-08-30T16:45:59.149Z,4.00
2018-08-30T16:48:26.448Z,6.23
2018-08-30T16:50:53.656Z,4.80
2018-08-30T16:53:20.976Z,4.17
2018-08-30T16:55:48.065Z,3.13
2018-08-30T16:58:15.257Z,3.00
2018-08-30T17:00:43.060Z,5.33
2018-08-30T17:03:10.431Z,3.93
2018-08-30T17:05:37.688Z,6.83
2018-08-30T17:08:05.073Z,5.80
2018-08-30T17:10:32.257Z,2.90
2018-08-30T17:12:59.458Z,4.63
2018-08-30T17:15:26.709Z,5.20
2018-08-30T17:17:54.345Z,5.70
2018-08-30T17:20:25.852Z,4.20
2018-08-30T17:22:53.128Z,3.00
2018-08-30T17:25:21.037Z,4.23
2018-08-30T17:27:48.195Z,3.00
2018-08-30T17:30:15.448Z,2.40
2018-08-30T17:32:42.620Z,3.60
2018-08-30T17:35:09.860Z,2.87
2018-08-30T17:37:37.049Z,5.83
2018-08-30T17:40:04.853Z,4.40
2018-08-30T17:42:32.044Z,2.83
2018-08-30T17:45:00.324Z,2.73
2018-08-30T17:47:27.597Z,6.70
2018-08-30T17:49:54.860Z,2.47
2018-08-30T17:52:22.304Z,3.10
2018-08-30T17:54:49.513Z,4.47
2018-08-30T17:57:16.795Z,2.93
2018-08-30T17:59:44.019Z,4.60
2018-08-30T18:02:11.268Z,3.50
2018-08-30T18:04:38.499Z,16.60
2018-08-30T18:07:05.856Z,5.57
2018-08-30T18:09:32.944Z,4.70
2018-08-30T18:12:00.180Z,2.93
2018-08-30T18:14:27.572Z,7.80
2018-08-30T18:16:54.743Z,3.40
2018-08-30T18:19:21.980Z,3.03
2018-08-30T18:21:49.155Z,5.47
2018-08-30T18:24:16.377Z,2.73
2018-08-30T18:26:43.516Z,2.47
2018-08-30T18:29:10.764Z,4.33
2018-08-30T18:31:38.045Z,7.20
2018-08-30T18:34:05.338Z,3.43
2018-08-30T18:36:32.496Z,2.80
2018-08-30T18:38:59.657Z,2.60
2018-08-30T18:41:26.883Z,3.57
2018-08-30T18:43:54.093Z,7.10
2018-08-30T18:46:21.340Z,10.33
2018-08-30T18:48:48.543Z,2.07
2018-08-30T18:51:15.713Z,3.30
2018-08-30T18:53:43.009Z,2.30
2018-08-30T18:56:10.224Z,3.60
2018-08-30T18:58:37.469Z,3.10
2018-08-30T19:01:04.905Z,2.20
2018-08-30T19:03:32.076Z,4.40
2018-08-30T19:05:59.448Z,4.47
2018-08-30T19:08:26.675Z,4.13
2018-08-30T19:10:53.863Z,3.87
2018-08-30T19:13:21.307Z,2.70
2018-08-30T19:15:54.220Z,7.00
2018-08-30T19:18:29.209Z,4.20
2018-08-30T19:20:59.236Z,4.73
2018-08-30T19:23:28.699Z,4.23
2018-08-30T19:25:56.008Z,3.20
2018-08-30T19:28:23.336Z,2.37
2018-08-30T19:30:52.481Z,4.13
2018-08-30T19:33:19.904Z,3.40
2018-08-30T19:35:53.041Z,4.70
2018-08-30T19:38:20.325Z,4.70
2018-08-30T19:40:53.211Z,4.50
2018-08-30T19:43:20.529Z,12.20
2018-08-30T19:45:47.712Z,17.03
2018-08-30T19:48:14.929Z,6.73
2018-08-30T19:50:42.113Z,4.67
2018-08-30T19:53:09.373Z,3.47
2018-08-30T19:55:36.568Z,2.20
2018-08-30T19:58:03.845Z,2.93
2018-08-30T20:00:31.091Z,5.20
2018-08-30T20:02:58.296Z,4.37
2018-08-30T20:05:25.504Z,2.80
2018-08-30T20:07:52.724Z,5.10
2018-08-30T20:10:19.868Z,6.30
2018-08-30T20:12:47.113Z,1.80
2018-08-30T20:15:14.369Z,4.00
2018-08-30T20:17:41.609Z,2.30
2018-08-30T20:20:08.926Z,3.90
2018-08-30T20:22:36.137Z,2.23
2018-08-30T20:25:03.437Z,3.90
2018-08-30T20:27:30.559Z,2.50
2018-08-30T20:29:57.744Z,3.07
2018-08-30T20:32:24.962Z,3.23
2018-08-30T20:34:52.233Z,4.80
2018-08-30T20:37:19.432Z,3.57
2018-08-30T20:39:46.596Z,7.87
2018-08-30T20:42:13.813Z,4.60
2018-08-30T20:44:40.939Z,4.87
2018-08-30T20:47:08.216Z,3.30
2018-08-30T20:49:35.424Z,4.33
2018-08-30T20:52:02.653Z,3.10
2018-08-30T20:54:29.836Z,5.93
2018-08-30T20:56:57.163Z,3.07
2018-08-30T20:59:24.304Z,4.00
2018-08-30T21:01:51.518Z,3.40
2018-08-30T21:04:18.747Z,1.83
2018-08-30T21:06:45.952Z,3.47
2018-08-30T21:09:13.116Z,4.77
2018-08-30T21:11:40.320Z,1.70
2018-08-30T21:14:07.552Z,11.17
2018-08-30T21:16:34.792Z,2.00
2018-08-30T21:19:01.981Z,3.17
2018-08-30T21:21:29.206Z,3.43
2018-08-30T21:23:56.412Z,1.67
2018-08-30T21:26:23.637Z,5.00
2018-08-30T21:28:50.784Z,3.00
2018-08-30T21:31:17.965Z,2.17
2018-08-30T21:33:45.268Z,3.73
2018-08-30T21:36:12.451Z,3.13
2018-08-30T21:38:39.668Z,3.33
2018-08-30T21:41:06.887Z,8.30
2018-08-30T21:43:34.069Z,7.37
2018-08-30T21:46:01.372Z,2.93
2018-08-30T21:48:28.616Z,4.10
2018-08-30T21:50:55.836Z,3.60
2018-08-30T21:53:23.116Z,6.77
2018-08-30T21:55:50.295Z,5.60
2018-08-30T21:58:17.514Z,3.67
2018-08-30T22:00:44.805Z,2.07
2018-08-30T22:03:11.972Z,1.67
2018-08-30T22:05:39.145Z,8.17
2018-08-30T22:08:06.432Z,3.70
2018-08-30T22:10:33.644Z,3.43
2018-08-30T22:13:00.856Z,5.27
2018-08-30T22:15:28.072Z,3.93
2018-08-30T22:17:55.288Z,3.23
2018-08-30T22:20:22.469Z,4.60
2018-08-30T22:22:49.663Z,5.00
2018-08-30T22:25:16.867Z,5.57
2018-08-30T22:27:44.084Z,2.60
2018-08-30T22:30:11.280Z,2.67
2018-08-30T22:32:38.717Z,2.60
2018-08-30T22:35:06.351Z,2.87
2018-08-30T22:37:33.559Z,3.27
2018-08-30T22:40:01.006Z,12.63
2018-08-30T22:42:28.128Z,2.70
2018-08-30T22:44:55.256Z,2.87
2018-08-30T22:47:22.472Z,3.40
2018-08-30T22:49:49.653Z,4.10
2018-08-30T22:52:16.850Z,3.77
2018-08-30T22:54:44.032Z,4.00
2018-08-30T22:57:11.268Z,7.87
2018-08-30T22:59:38.521Z,5.13
2018-08-30T23:02:05.728Z,6.47
2018-08-30T23:04:32.901Z,3.97
2018-08-30T23:07:00.104Z,4.07
2018-08-30T23:09:27.304Z,4.83
2018-08-30T23:11:54.556Z,3.80
2018-08-30T23:14:21.816Z,3.27
2018-08-30T23:16:48.972Z,2.40
2018-08-30T23:19:16.180Z,5.80
2018-08-30T23:21:43.377Z,1.80
2018-08-30T23:24:10.504Z,5.27
2018-08-30T23:26:37.683Z,2.27
2018-08-30T23:29:04.882Z,2.53
2018-08-30T23:31:32.124Z,1.97
2018-08-30T23:33:59.368Z,2.70
2018-08-30T23:36:26.583Z,3.43
2018-08-30T23:38:53.748Z,3.00
2018-08-30T23:41:20.964Z,2.17
2018-08-30T23:43:48.163Z,8.20
2018-08-30T23:46:15.379Z,2.50
2018-08-30T23:48:42.669Z,8.50
2018-08-30T23:51:09.903Z,3.73
2018-08-30T23:53:37.107Z,7.60
2018-08-30T23:56:04.413Z,3.27
2018-08-30T23:58:43.056Z,2.57
